Terminal Aerodrome Forecast
Issued by NWS Jacksonville, FL

Home | Current Version | Previous Version | Text Only | Print | Product List | Glossary On
Versions: 1 2 3 4 5 6 7 8 9 10 11 12 13 14 15 16 17 18 19 20 21 22 23 24 25 26 27 28 29 30
990
FTUS42 KJAX 221929 AAB
TAFSSI
TAF AMD
KSSI 221929Z 2219/2318 09010G25KT P6SM -RA VCTS BKN040CB BKN050
      OVC060
      TEMPO 2219/2221 1/2SM -TSRA BKN015CB BKN020
     FM222100 21015G20KT P6SM -SHRA OVC050
      TEMPO 2221/2301 VRB30G50KT 1SM +TSRA SCT010 BKN020CB OVC050
     FM230100 20019KT P6SM BKN025 OVC050
      TEMPO 2301/2303 P6SM -SHRA OVC050
     FM230300 24013KT P6SM BKN100 OVC250
      TEMPO 2303/2306 P6SM -SHRA OVC100
     FM230600 23015G22KT P6SM BKN050=

USA.gov is the U.S. government's official web portal to all federal, state and local government web resources and services.